createdAt,value
2019-05-26T00:01:09.911Z,46.90
2019-05-26T00:03:14.646Z,46.90
2019-05-26T00:05:19.396Z,47.00
2019-05-26T00:07:30.544Z,47.10
2019-05-26T00:09:31.635Z,47.10
2019-05-26T00:11:36.321Z,47.80
2019-05-26T00:13:41.085Z,47.20
2019-05-26T00:15:46.000Z,47.30
2019-05-26T00:17:50.698Z,47.30
2019-05-26T00:19:55.481Z,47.30
2019-05-26T00:22:00.438Z,47.40
2019-05-26T00:24:05.107Z,47.40
2019-05-26T00:26:10.926Z,47.50
2019-05-26T00:28:15.670Z,47.50
2019-05-26T00:30:20.444Z,47.50
2019-05-26T00:32:25.262Z,47.50
2019-05-26T00:34:30.016Z,47.60
2019-05-26T00:36:34.775Z,47.70
2019-05-26T00:38:39.592Z,47.70
2019-05-26T00:40:45.580Z,47.70
2019-05-26T00:42:50.325Z,47.60
2019-05-26T00:44:55.101Z,47.80
2019-05-26T00:46:59.760Z,47.70
2019-05-26T00:49:05.148Z,47.70
2019-05-26T00:51:10.261Z,47.80
2019-05-26T00:53:15.539Z,47.70
2019-05-26T00:55:20.292Z,47.80
2019-05-26T00:57:25.067Z,47.80
2019-05-26T00:59:29.803Z,48.60
2019-05-26T01:01:34.503Z,47.90
2019-05-26T01:03:39.253Z,48.10
2019-05-26T01:05:44.023Z,48.00
2019-05-26T01:08:04.909Z,48.10
2019-05-26T01:09:55.096Z,48.20
2019-05-26T01:11:59.818Z,48.00
2019-05-26T01:14:04.589Z,48.10
2019-05-26T01:16:09.264Z,48.20
2019-05-26T01:18:14.335Z,48.10
2019-05-26T01:20:19.040Z,48.20
2019-05-26T01:22:23.786Z,48.60
2019-05-26T01:24:28.444Z,49.00
2019-05-26T01:26:33.595Z,48.20
2019-05-26T01:28:39.323Z,48.30
2019-05-26T01:30:44.020Z,48.30
2019-05-26T01:32:48.757Z,48.40
2019-05-26T01:34:53.473Z,48.40
2019-05-26T01:36:58.218Z,48.40
2019-05-26T01:39:02.988Z,48.40
2019-05-26T01:41:07.845Z,48.20
2019-05-26T01:43:12.541Z,48.30
2019-05-26T01:45:17.283Z,48.40
2019-05-26T01:47:22.000Z,48.50
2019-05-26T01:49:26.677Z,48.50
2019-05-26T01:51:31.407Z,48.60
2019-05-26T01:53:36.113Z,48.60
2019-05-26T01:55:40.849Z,48.60
2019-05-26T01:57:45.568Z,48.70
2019-05-26T01:59:50.829Z,48.80
2019-05-26T02:01:58.657Z,48.90
2019-05-26T02:04:01.918Z,48.90
2019-05-26T02:06:06.631Z,48.90
2019-05-26T02:08:12.406Z,48.90
2019-05-26T02:10:17.315Z,48.90
2019-05-26T02:12:21.989Z,49.00
2019-05-26T02:14:26.682Z,49.00
2019-05-26T02:16:31.364Z,49.10
2019-05-26T02:18:36.193Z,49.10
2019-05-26T02:20:41.569Z,49.20
2019-05-26T02:22:46.309Z,49.30
2019-05-26T02:24:51.165Z,49.30
2019-05-26T02:26:55.830Z,49.40
2019-05-26T02:29:00.524Z,49.40
2019-05-26T02:31:05.199Z,49.40
2019-05-26T02:33:09.985Z,50.20
2019-05-26T02:35:14.743Z,49.40
2019-05-26T02:37:19.480Z,49.60
2019-05-26T02:39:24.270Z,49.50
2019-05-26T02:41:29.013Z,49.60
2019-05-26T02:43:33.835Z,49.60
2019-05-26T02:45:39.580Z,49.60
2019-05-26T02:47:45.331Z,49.60
2019-05-26T02:49:50.096Z,49.60
2019-05-26T02:51:54.833Z,50.00
2019-05-26T02:53:59.578Z,49.70
2019-05-26T02:56:04.315Z,49.70
2019-05-26T02:58:09.055Z,49.70
2019-05-26T03:00:14.666Z,49.30
2019-05-26T03:02:19.367Z,49.80
2019-05-26T03:04:24.120Z,49.70
2019-05-26T03:06:28.920Z,49.80
2019-05-26T03:08:33.701Z,49.80
2019-05-26T03:10:38.398Z,49.70
2019-05-26T03:12:43.145Z,49.70
2019-05-26T03:14:47.896Z,49.70
2019-05-26T03:16:52.680Z,49.70
2019-05-26T03:18:57.333Z,49.70
2019-05-26T03:21:03.055Z,49.70
2019-05-26T03:23:07.804Z,49.60
2019-05-26T03:25:12.631Z,49.70
2019-05-26T03:27:17.387Z,49.70
2019-05-26T03:29:22.132Z,49.70
2019-05-26T03:31:26.904Z,49.70
2019-05-26T03:33:32.625Z,49.70
2019-05-26T03:35:37.374Z,49.70
2019-05-26T03:37:42.155Z,49.90
2019-05-26T03:39:46.897Z,49.90
2019-05-26T03:41:51.653Z,49.90
2019-05-26T03:43:56.413Z,50.00
2019-05-26T03:46:18.481Z,50.00
2019-05-26T03:48:23.203Z,49.90
2019-05-26T03:50:27.866Z,49.80
2019-05-26T03:52:32.574Z,49.90
2019-05-26T03:54:37.264Z,50.00
2019-05-26T03:56:42.061Z,50.00
2019-05-26T03:58:46.794Z,50.10
2019-05-26T04:00:51.496Z,50.30
2019-05-26T04:02:56.844Z,50.20
2019-05-26T04:05:01.578Z,50.40
2019-05-26T04:07:06.324Z,50.30
2019-05-26T04:09:11.332Z,50.30
2019-05-26T04:11:16.089Z,50.30
2019-05-26T04:13:20.851Z,50.40
2019-05-26T04:15:25.524Z,50.40
2019-05-26T04:17:30.296Z,50.30
2019-05-26T04:19:35.041Z,50.40
2019-05-26T04:21:39.782Z,50.50
2019-05-26T04:23:44.551Z,50.40
2019-05-26T04:25:49.291Z,50.50
2019-05-26T04:27:53.989Z,50.70
2019-05-26T04:29:58.732Z,50.60
2019-05-26T04:32:03.541Z,50.60
2019-05-26T04:34:08.334Z,50.60
2019-05-26T04:36:13.844Z,50.60
2019-05-26T04:38:18.604Z,50.80
2019-05-26T04:40:27.059Z,50.80
2019-05-26T04:42:29.629Z,50.80
2019-05-26T04:44:34.402Z,50.90
2019-05-26T04:46:39.225Z,51.00
2019-05-26T04:48:44.070Z,51.00
2019-05-26T04:50:48.802Z,51.00
2019-05-26T04:53:05.626Z,51.10
2019-05-26T04:55:00.352Z,51.20
2019-05-26T04:57:05.433Z,51.10
2019-05-26T04:59:11.092Z,51.20
2019-05-26T05:01:15.817Z,51.20
2019-05-26T05:03:20.587Z,51.30
2019-05-26T05:05:25.330Z,51.40
2019-05-26T05:07:30.057Z,51.50
2019-05-26T05:09:34.772Z,51.50
2019-05-26T05:11:39.497Z,51.70
2019-05-26T05:13:44.188Z,51.90
2019-05-26T05:15:48.919Z,51.70
2019-05-26T05:17:55.287Z,51.70
2019-05-26T05:19:59.972Z,51.70
2019-05-26T05:22:05.175Z,51.80
2019-05-26T05:24:09.887Z,51.90
2019-05-26T05:26:14.620Z,52.20
2019-05-26T05:28:19.288Z,52.10
2019-05-26T05:30:23.986Z,52.20
2019-05-26T05:32:32.736Z,52.10
2019-05-26T05:34:35.136Z,52.20
2019-05-26T05:36:39.786Z,52.20
2019-05-26T05:38:44.446Z,52.40
2019-05-26T05:40:59.011Z,52.40
2019-05-26T05:42:55.490Z,52.50
2019-05-26T05:45:00.166Z,52.50
2019-05-26T05:47:04.839Z,52.50
2019-05-26T05:49:09.575Z,52.60
2019-05-26T05:51:14.288Z,52.50
2019-05-26T05:53:18.970Z,52.70
2019-05-26T05:55:24.129Z,52.60
2019-05-26T05:57:28.923Z,52.80
2019-05-26T05:59:33.633Z,53.10
2019-05-26T06:01:38.287Z,53.70
2019-05-26T06:03:42.983Z,53.10
2019-05-26T06:05:47.637Z,53.00
2019-05-26T06:07:52.329Z,53.10
2019-05-26T06:09:58.082Z,53.20
2019-05-26T06:12:02.855Z,53.10
2019-05-26T06:14:07.585Z,53.00
2019-05-26T06:16:12.281Z,53.00
2019-05-26T06:18:17.021Z,53.20
2019-05-26T06:20:21.699Z,53.30
2019-05-26T06:22:26.387Z,53.20
2019-05-26T06:24:31.047Z,53.20
2019-05-26T06:26:35.820Z,52.90
2019-05-26T06:28:40.560Z,52.80
2019-05-26T06:30:58.944Z,52.70
2019-05-26T06:33:04.705Z,52.50
2019-05-26T06:35:09.553Z,52.30
2019-05-26T06:37:14.271Z,52.20
2019-05-26T06:39:18.936Z,52.70
2019-05-26T06:41:32.811Z,52.00
2019-05-26T06:43:30.029Z,51.90
2019-05-26T06:45:34.851Z,51.80
2019-05-26T06:47:39.616Z,51.80
2019-05-26T06:49:44.382Z,51.80
2019-05-26T06:51:49.177Z,51.80
2019-05-26T06:53:53.904Z,51.80
2019-05-26T06:55:58.648Z,51.80
2019-05-26T06:58:03.355Z,51.80
2019-05-26T07:00:08.019Z,51.80
2019-05-26T07:02:12.729Z,51.80
2019-05-26T07:04:17.416Z,51.70
2019-05-26T07:06:22.182Z,52.00
2019-05-26T07:08:26.875Z,52.10
2019-05-26T07:10:31.611Z,52.10
2019-05-26T07:12:36.640Z,52.10
2019-05-26T07:14:41.484Z,52.10
2019-05-26T07:16:46.315Z,52.20
2019-05-26T07:18:51.106Z,52.20
2019-05-26T07:20:55.882Z,52.20
2019-05-26T07:23:00.868Z,52.30
2019-05-26T07:25:06.783Z,52.20
2019-05-26T07:27:11.523Z,52.30
2019-05-26T07:29:16.208Z,52.30
2019-05-26T07:31:20.957Z,52.30
2019-05-26T07:33:25.732Z,52.30
2019-05-26T07:35:32.947Z,52.30
2019-05-26T07:37:36.759Z,52.40
2019-05-26T07:39:41.526Z,53.20
2019-05-26T07:41:46.183Z,52.50
2019-05-26T07:43:51.005Z,52.30
2019-05-26T07:45:55.793Z,52.30
2019-05-26T07:48:00.588Z,52.30
2019-05-26T07:50:06.521Z,52.30
2019-05-26T07:52:11.178Z,52.30
2019-05-26T07:54:24.941Z,52.30
2019-05-26T07:56:22.256Z,52.50
2019-05-26T07:58:26.997Z,52.50
2019-05-26T08:00:31.837Z,52.50
2019-05-26T08:02:36.518Z,52.40
2019-05-26T08:04:41.293Z,52.40
2019-05-26T08:06:46.027Z,52.30
2019-05-26T08:08:50.718Z,52.50
2019-05-26T08:10:55.457Z,52.30
2019-05-26T08:13:00.136Z,52.30
2019-05-26T08:15:06.528Z,52.30
2019-05-26T08:17:11.283Z,52.30
2019-05-26T08:19:16.014Z,52.30
2019-05-26T08:21:20.695Z,52.30
2019-05-26T08:23:25.473Z,52.40
2019-05-26T08:25:30.310Z,52.30
2019-05-26T08:27:35.071Z,52.40
2019-05-26T08:29:40.610Z,52.40
2019-05-26T08:31:45.535Z,52.50
2019-05-26T08:33:50.193Z,52.30
2019-05-26T08:35:54.977Z,52.40
2019-05-26T08:37:59.657Z,52.30
2019-05-26T08:40:19.107Z,52.30
2019-05-26T08:42:27.272Z,52.30
2019-05-26T08:44:30.345Z,52.30
2019-05-26T08:46:35.074Z,52.80
2019-05-26T08:48:39.809Z,52.40
2019-05-26T08:50:44.504Z,52.40
2019-05-26T08:52:49.231Z,52.40
2019-05-26T08:54:53.908Z,52.50
2019-05-26T08:56:58.671Z,52.70
2019-05-26T08:59:03.409Z,52.80
2019-05-26T09:01:08.109Z,52.90
2019-05-26T09:03:12.837Z,53.10
2019-05-26T09:05:19.135Z,53.10
2019-05-26T09:07:23.893Z,53.20
2019-05-26T09:09:28.571Z,53.20
2019-05-26T09:11:33.366Z,53.20
2019-05-26T09:13:38.088Z,53.20
2019-05-26T09:15:43.222Z,53.10
2019-05-26T09:17:48.036Z,53.10
2019-05-26T09:19:52.917Z,52.90
2019-05-26T09:21:57.687Z,52.70
2019-05-26T09:24:02.421Z,52.50
2019-05-26T09:26:07.172Z,52.30
2019-05-26T09:28:11.911Z,52.20
2019-05-26T09:30:16.682Z,52.20
2019-05-26T09:32:21.423Z,52.20
2019-05-26T09:34:29.190Z,52.20
2019-05-26T09:36:34.014Z,52.10
2019-05-26T09:38:38.951Z,52.00
2019-05-26T09:40:44.077Z,51.90
2019-05-26T09:42:48.820Z,51.90
2019-05-26T09:44:54.627Z,51.80
2019-05-26T09:46:59.365Z,51.90
2019-05-26T09:49:04.079Z,51.90
2019-05-26T09:51:08.859Z,51.90
2019-05-26T09:53:13.587Z,52.00
2019-05-26T09:55:18.351Z,52.10
2019-05-26T09:57:23.941Z,52.10
2019-05-26T09:59:28.687Z,52.10
2019-05-26T10:01:33.472Z,52.10
2019-05-26T10:03:39.857Z,52.00
2019-05-26T10:05:44.626Z,52.10
2019-05-26T10:07:49.281Z,51.90
2019-05-26T10:09:54.020Z,52.00
2019-05-26T10:11:59.765Z,52.00
2019-05-26T10:14:04.577Z,51.90
2019-05-26T10:16:09.269Z,51.90
2019-05-26T10:18:14.100Z,51.90
2019-05-26T10:20:18.919Z,52.00
2019-05-26T10:22:23.882Z,51.80
2019-05-26T10:24:30.201Z,51.90
2019-05-26T10:26:34.913Z,52.10
2019-05-26T10:28:39.583Z,52.20
2019-05-26T10:31:03.832Z,52.30
2019-05-26T10:33:08.654Z,52.40
2019-05-26T10:35:13.311Z,52.30
2019-05-26T10:37:18.070Z,52.30
2019-05-26T10:39:22.820Z,52.20
2019-05-26T10:41:27.646Z,52.40
2019-05-26T10:43:46.267Z,52.20
2019-05-26T10:45:38.774Z,52.10
2019-05-26T10:47:43.476Z,52.10
2019-05-26T10:49:48.219Z,51.90
2019-05-26T10:51:52.977Z,51.70
2019-05-26T10:53:57.749Z,51.80
2019-05-26T10:56:02.508Z,51.70
2019-05-26T10:58:07.252Z,51.60
2019-05-26T11:00:12.234Z,51.60
2019-05-26T11:02:16.972Z,51.60
2019-05-26T11:04:23.116Z,51.60
2019-05-26T11:06:27.767Z,51.50
2019-05-26T11:08:32.442Z,51.30
2019-05-26T11:10:37.136Z,51.30
2019-05-26T11:12:42.232Z,51.10
2019-05-26T11:14:47.059Z,51.00
2019-05-26T11:16:52.896Z,51.00
2019-05-26T11:18:57.622Z,51.00
2019-05-26T11:21:02.360Z,50.90
2019-05-26T11:23:07.128Z,50.80
2019-05-26T11:25:11.881Z,50.90
2019-05-26T11:27:16.589Z,50.80
2019-05-26T11:29:21.359Z,50.90
2019-05-26T11:31:26.104Z,50.70
2019-05-26T11:33:31.287Z,50.60
2019-05-26T11:35:36.032Z,50.50
2019-05-26T11:37:41.573Z,50.40
2019-05-26T11:39:46.275Z,50.20
2019-05-26T11:41:54.906Z,50.10
2019-05-26T11:43:57.343Z,50.00
2019-05-26T11:46:01.992Z,49.80
2019-05-26T11:48:06.675Z,49.80
2019-05-26T11:50:11.491Z,50.00
2019-05-26T11:52:19.975Z,50.00
2019-05-26T11:54:23.013Z,49.90
2019-05-26T11:56:27.940Z,49.80
2019-05-26T11:58:32.676Z,49.70
2019-05-26T12:00:38.735Z,49.80
2019-05-26T12:02:44.916Z,49.80
2019-05-26T12:04:52.208Z,49.90
2019-05-26T12:06:57.031Z,49.90
2019-05-26T12:09:01.771Z,49.80
2019-05-26T12:11:07.721Z,50.20
2019-05-26T12:13:12.414Z,49.40
2019-05-26T12:15:17.932Z,49.30
2019-05-26T12:17:35.342Z,49.20
2019-05-26T12:19:41.757Z,49.40
2019-05-26T12:21:46.451Z,50.10
2019-05-26T12:23:54.694Z,49.40
2019-05-26T12:25:58.233Z,49.20
2019-05-26T12:28:02.976Z,49.10
2019-05-26T12:30:09.389Z,49.80
2019-05-26T12:32:14.197Z,49.10
2019-05-26T12:34:18.965Z,49.20
2019-05-26T12:36:23.728Z,49.00
2019-05-26T12:38:28.477Z,48.90
2019-05-26T12:40:33.242Z,48.80
2019-05-26T12:42:37.987Z,49.50
2019-05-26T12:44:49.472Z,48.80
2019-05-26T12:46:49.088Z,48.60
2019-05-26T12:48:53.831Z,48.60
2019-05-26T12:50:58.660Z,48.50
2019-05-26T12:53:04.090Z,48.40
2019-05-26T12:55:09.925Z,48.60
2019-05-26T12:57:14.890Z,48.60
2019-05-26T12:59:19.540Z,48.90
2019-05-26T13:01:25.902Z,49.00
2019-05-26T13:03:30.623Z,48.90
2019-05-26T13:05:35.401Z,48.90
2019-05-26T13:07:40.356Z,49.00
2019-05-26T13:09:45.121Z,49.00
2019-05-26T13:11:49.787Z,49.10
2019-05-26T13:13:54.480Z,49.50
2019-05-26T13:15:59.223Z,49.30
2019-05-26T13:18:04.420Z,49.50
2019-05-26T13:20:09.515Z,49.50
2019-05-26T13:22:14.311Z,49.50
2019-05-26T13:24:18.982Z,49.40
2019-05-26T13:26:23.720Z,49.40
2019-05-26T13:28:28.502Z,49.50
2019-05-26T13:30:33.601Z,50.00
2019-05-26T13:32:38.328Z,49.70
2019-05-26T13:34:43.222Z,49.70
2019-05-26T13:36:50.802Z,49.60
2019-05-26T13:38:55.869Z,49.30
2019-05-26T13:41:00.743Z,49.10
2019-05-26T13:43:05.420Z,49.00
2019-05-26T13:45:21.977Z,48.90
2019-05-26T13:47:25.845Z,48.80
2019-05-26T13:49:22.928Z,48.90
2019-05-26T13:51:27.594Z,48.90
2019-05-26T13:53:32.280Z,48.90
2019-05-26T13:55:36.959Z,49.10
2019-05-26T13:57:41.712Z,49.30
2019-05-26T13:59:47.646Z,49.40
2019-05-26T14:01:52.454Z,49.10
2019-05-26T14:03:57.145Z,48.90
2019-05-26T14:06:01.961Z,48.60
2019-05-26T14:08:06.987Z,48.50
2019-05-26T14:10:11.683Z,48.30
2019-05-26T14:12:16.756Z,48.20
2019-05-26T14:14:21.422Z,48.10
2019-05-26T14:16:26.190Z,48.00
2019-05-26T14:18:30.996Z,48.00
2019-05-26T14:20:38.276Z,48.00
2019-05-26T14:22:43.022Z,47.90
2019-05-26T14:24:53.726Z,47.60
2019-05-26T14:26:54.152Z,47.80
2019-05-26T14:28:58.860Z,47.80
2019-05-26T14:31:03.594Z,47.70
2019-05-26T14:33:08.265Z,47.30
2019-05-26T14:35:12.960Z,47.40
2019-05-26T14:37:17.621Z,47.40
2019-05-26T14:39:22.392Z,47.30
2019-05-26T14:41:27.517Z,46.90
2019-05-26T14:43:32.320Z,46.80
2019-05-26T14:45:52.059Z,46.70
2019-05-26T14:47:43.476Z,46.50
2019-05-26T14:49:48.262Z,46.70
2019-05-26T14:51:52.964Z,46.70
2019-05-26T14:53:57.645Z,46.70
2019-05-26T14:56:02.351Z,46.70
2019-05-26T14:58:15.614Z,46.30
2019-05-26T15:00:13.537Z,46.60
2019-05-26T15:02:18.225Z,46.30
2019-05-26T15:04:22.927Z,46.20
2019-05-26T15:06:27.720Z,45.70
2019-05-26T15:08:32.476Z,45.60
2019-05-26T15:10:37.145Z,45.70
2019-05-26T15:12:41.939Z,45.30
2019-05-26T15:14:46.732Z,45.30
2019-05-26T15:16:51.429Z,45.50
2019-05-26T15:18:56.083Z,45.70
2019-05-26T15:21:00.897Z,45.60
2019-05-26T15:23:05.562Z,45.60
2019-05-26T15:25:10.232Z,45.50
2019-05-26T15:27:14.919Z,45.40
2019-05-26T15:29:19.668Z,44.70
2019-05-26T15:31:24.381Z,45.00
2019-05-26T15:33:29.120Z,46.00
2019-05-26T15:35:33.859Z,45.40
2019-05-26T15:37:38.644Z,45.30
2019-05-26T15:39:43.398Z,45.10
2019-05-26T15:41:48.791Z,45.00
2019-05-26T15:43:53.456Z,44.80
2019-05-26T15:45:58.226Z,44.90
2019-05-26T15:48:03.026Z,44.70
2019-05-26T15:50:07.839Z,44.70
2019-05-26T15:52:12.542Z,44.90
2019-05-26T15:54:17.210Z,44.80
2019-05-26T15:56:22.178Z,44.60
2019-05-26T15:58:26.923Z,44.80
2019-05-26T16:00:31.587Z,44.90
2019-05-26T16:02:36.384Z,44.70
2019-05-26T16:04:41.130Z,44.70
2019-05-26T16:06:47.130Z,44.40
2019-05-26T16:08:52.363Z,44.70
2019-05-26T16:10:57.101Z,44.70
2019-05-26T16:13:01.866Z,44.80
2019-05-26T16:15:07.068Z,44.60
2019-05-26T16:17:13.447Z,44.60
2019-05-26T16:19:18.185Z,44.40
2019-05-26T16:21:27.973Z,44.20
2019-05-26T16:23:29.312Z,44.40
2019-05-26T16:25:33.976Z,44.50
2019-05-26T16:27:39.351Z,44.40
2019-05-26T16:29:46.631Z,44.20
2019-05-26T16:31:50.561Z,44.30
2019-05-26T16:33:55.251Z,44.00
2019-05-26T16:35:59.932Z,43.80
2019-05-26T16:38:04.626Z,44.00
2019-05-26T16:40:09.291Z,44.10
2019-05-26T16:42:14.046Z,44.30
2019-05-26T16:44:19.319Z,44.30
2019-05-26T16:46:23.992Z,44.30
2019-05-26T16:48:28.673Z,44.20
2019-05-26T16:50:33.561Z,43.90
2019-05-26T16:52:38.291Z,43.90
2019-05-26T16:54:43.034Z,43.70
2019-05-26T16:56:47.805Z,43.20
2019-05-26T16:58:52.463Z,42.90
2019-05-26T17:00:57.174Z,42.80
2019-05-26T17:03:01.905Z,43.00
2019-05-26T17:05:07.413Z,43.30
2019-05-26T17:07:12.146Z,43.70
2019-05-26T17:09:16.840Z,43.30
2019-05-26T17:11:21.501Z,43.10
2019-05-26T17:13:26.195Z,43.30
2019-05-26T17:15:30.924Z,43.30
2019-05-26T17:17:35.611Z,43.40
2019-05-26T17:19:40.321Z,43.50
2019-05-26T17:21:45.151Z,43.40
2019-05-26T17:23:50.878Z,43.40
2019-05-26T17:25:55.667Z,43.40
2019-05-26T17:28:00.325Z,43.30
2019-05-26T17:30:06.643Z,42.90
2019-05-26T17:32:11.460Z,43.00
2019-05-26T17:34:16.289Z,43.00
2019-05-26T17:36:21.015Z,43.30
2019-05-26T17:38:25.694Z,43.40
2019-05-26T17:40:30.468Z,43.30
2019-05-26T17:42:35.132Z,43.10
2019-05-26T17:44:39.889Z,43.40
2019-05-26T17:46:44.583Z,43.30
2019-05-26T17:48:49.261Z,43.20
2019-05-26T17:50:53.941Z,43.40
2019-05-26T17:52:58.602Z,43.40
2019-05-26T17:55:04.949Z,43.30
2019-05-26T17:57:09.609Z,43.40
2019-05-26T17:59:14.284Z,43.50
2019-05-26T18:01:18.968Z,43.50
2019-05-26T18:03:23.621Z,43.40
2019-05-26T18:05:28.311Z,43.40
2019-05-26T18:07:32.963Z,43.50
2019-05-26T18:09:44.334Z,43.60
2019-05-26T18:11:45.120Z,43.60
2019-05-26T18:13:49.896Z,43.60
2019-05-26T18:15:54.652Z,43.60
2019-05-26T18:17:59.472Z,43.60
2019-05-26T18:20:06.900Z,43.70
2019-05-26T18:22:11.746Z,44.50
2019-05-26T18:24:16.517Z,43.70
2019-05-26T18:26:21.246Z,43.90
2019-05-26T18:28:25.967Z,43.90
2019-05-26T18:30:30.629Z,44.00
2019-05-26T18:32:35.335Z,44.00
2019-05-26T18:34:40.112Z,44.10
2019-05-26T18:36:44.937Z,44.20
2019-05-26T18:38:49.706Z,44.20
2019-05-26T18:40:54.444Z,44.40
2019-05-26T18:43:00.092Z,44.50
2019-05-26T18:45:07.686Z,44.60
2019-05-26T18:47:12.350Z,44.50
2019-05-26T18:49:17.115Z,44.60
2019-05-26T18:51:21.770Z,44.70
2019-05-26T18:53:29.463Z,44.80
2019-05-26T18:55:32.830Z,44.90
2019-05-26T18:57:37.522Z,45.00
2019-05-26T18:59:42.176Z,44.90
2019-05-26T19:01:46.882Z,44.90
2019-05-26T19:03:51.548Z,45.00
2019-05-26T19:05:56.219Z,45.00
2019-05-26T19:08:00.992Z,45.20
2019-05-26T19:10:08.675Z,45.20
2019-05-26T19:12:13.646Z,46.00
2019-05-26T19:14:18.321Z,45.30
2019-05-26T19:16:22.990Z,45.30
2019-05-26T19:18:27.807Z,45.30
2019-05-26T19:20:32.466Z,45.30
2019-05-26T19:22:58.265Z,45.40
2019-05-26T19:25:05.364Z,45.50
2019-05-26T19:27:12.748Z,45.40
2019-05-26T19:29:18.407Z,46.20
2019-05-26T19:31:23.156Z,45.50
2019-05-26T19:33:27.929Z,45.60
2019-05-26T19:35:32.666Z,45.80
2019-05-26T19:37:37.382Z,45.80
2019-05-26T19:39:42.054Z,45.80
2019-05-26T19:41:47.223Z,45.80
2019-05-26T19:43:52.046Z,45.70
2019-05-26T19:45:56.974Z,45.90
2019-05-26T19:48:01.715Z,45.90
2019-05-26T19:50:06.759Z,45.90
2019-05-26T19:52:11.504Z,45.90
2019-05-26T19:54:16.244Z,46.00
2019-05-26T19:56:21.018Z,46.00
2019-05-26T19:58:28.601Z,46.10
2019-05-26T20:00:33.212Z,46.10
2019-05-26T20:02:39.041Z,46.20
2019-05-26T20:04:43.767Z,46.10
2019-05-26T20:06:48.458Z,46.30
2019-05-26T20:08:53.218Z,46.40
2019-05-26T20:10:57.881Z,46.40
2019-05-26T20:13:02.548Z,46.50
2019-05-26T20:15:07.371Z,46.60
2019-05-26T20:17:12.027Z,46.60
2019-05-26T20:19:16.705Z,46.70
2019-05-26T20:21:21.536Z,46.70
2019-05-26T20:23:26.582Z,46.70
2019-05-26T20:25:31.484Z,46.80
2019-05-26T20:27:36.213Z,46.70
2019-05-26T20:29:40.974Z,46.80
2019-05-26T20:31:45.673Z,46.90
2019-05-26T20:33:50.398Z,47.00
2019-05-26T20:35:55.066Z,47.00
2019-05-26T20:37:59.899Z,47.10
2019-05-26T20:40:07.668Z,47.30
2019-05-26T20:42:12.428Z,47.20
2019-05-26T20:44:17.233Z,47.10
2019-05-26T20:46:21.969Z,46.90
2019-05-26T20:48:28.608Z,47.20
2019-05-26T20:50:33.308Z,47.00
2019-05-26T20:52:38.146Z,46.90
2019-05-26T20:54:42.921Z,46.90
2019-05-26T20:56:47.660Z,46.90
2019-05-26T20:58:52.331Z,47.00
2019-05-26T21:00:57.102Z,47.00
2019-05-26T21:03:01.828Z,46.70
2019-05-26T21:05:09.520Z,47.00
2019-05-26T21:07:14.300Z,47.00
2019-05-26T21:09:19.041Z,47.10
2019-05-26T21:11:23.782Z,47.20
2019-05-26T21:13:28.570Z,47.20
2019-05-26T21:15:33.330Z,47.30
2019-05-26T21:17:38.017Z,47.30
2019-05-26T21:19:42.755Z,47.30
2019-05-26T21:21:47.502Z,47.40
2019-05-26T21:23:52.242Z,47.40
2019-05-26T21:25:56.935Z,47.60
2019-05-26T21:28:01.670Z,47.30
2019-05-26T21:30:06.983Z,47.60
2019-05-26T21:32:24.089Z,47.60
2019-05-26T21:34:28.814Z,47.60
2019-05-26T21:36:33.481Z,47.50
2019-05-26T21:38:38.265Z,47.60
2019-05-26T21:40:42.993Z,47.70
2019-05-26T21:42:48.633Z,47.70
2019-05-26T21:44:53.321Z,47.80
2019-05-26T21:46:57.989Z,48.00
2019-05-26T21:49:02.748Z,47.90
2019-05-26T21:51:07.430Z,47.80
2019-05-26T21:53:12.210Z,48.00
2019-05-26T21:55:16.940Z,48.00
2019-05-26T21:57:21.601Z,48.10
2019-05-26T21:59:26.301Z,48.30
2019-05-26T22:01:30.974Z,48.60
2019-05-26T22:03:35.665Z,48.60
2019-05-26T22:05:40.485Z,48.80
2019-05-26T22:07:45.205Z,48.80
2019-05-26T22:09:49.961Z,49.20
2019-05-26T22:11:54.617Z,49.20
2019-05-26T22:13:59.273Z,49.30
2019-05-26T22:16:03.972Z,49.50
2019-05-26T22:18:08.635Z,49.60
2019-05-26T22:20:13.555Z,50.10
2019-05-26T22:22:18.323Z,50.10
2019-05-26T22:24:22.985Z,50.50
2019-05-26T22:26:27.676Z,50.60
2019-05-26T22:28:32.415Z,50.70
2019-05-26T22:30:37.162Z,50.90
2019-05-26T22:32:41.835Z,51.10
2019-05-26T22:34:46.513Z,51.20
2019-05-26T22:37:03.568Z,51.60
2019-05-26T22:39:08.238Z,51.50
2019-05-26T22:41:12.983Z,51.70
2019-05-26T22:43:17.669Z,51.90
2019-05-26T22:45:22.323Z,51.90
2019-05-26T22:47:27.080Z,52.40
2019-05-26T22:49:31.766Z,52.60
2019-05-26T22:51:36.712Z,53.00
2019-05-26T22:53:41.466Z,52.80
2019-05-26T22:55:46.246Z,52.90
2019-05-26T22:57:51.018Z,53.10
2019-05-26T22:59:55.766Z,53.10
2019-05-26T23:02:00.530Z,54.00
2019-05-26T23:04:05.269Z,53.40
2019-05-26T23:06:10.034Z,53.40
2019-05-26T23:08:14.808Z,53.70
2019-05-26T23:10:19.558Z,53.60
2019-05-26T23:12:24.577Z,53.60
2019-05-26T23:14:29.360Z,53.90
2019-05-26T23:16:34.113Z,54.60
2019-05-26T23:18:38.842Z,54.10
2019-05-26T23:20:43.525Z,54.40
2019-05-26T23:22:48.208Z,55.10
2019-05-26T23:24:52.962Z,54.70
2019-05-26T23:26:57.661Z,54.50
2019-05-26T23:29:02.482Z,54.90
2019-05-26T23:31:07.162Z,54.80
2019-05-26T23:33:12.180Z,55.10
2019-05-26T23:35:18.453Z,55.20
2019-05-26T23:37:23.194Z,55.50
2019-05-26T23:39:27.966Z,55.50
2019-05-26T23:41:32.700Z,55.70
2019-05-26T23:43:40.346Z,55.50
2019-05-26T23:45:45.550Z,55.60
2019-05-26T23:47:50.294Z,55.90
2019-05-26T23:49:54.956Z,56.90
2019-05-26T23:51:59.689Z,56.00
2019-05-26T23:54:04.565Z,56.00
2019-05-26T23:56:09.301Z,56.10
2019-05-26T23:58:13.995Z,56.00
